createdAt,value
2022-08-28T00:01:02.669Z,99536.53
2022-08-28T00:06:04.622Z,99535.25
2022-08-28T00:11:06.378Z,99532.31
2022-08-28T00:16:08.115Z,99535.69
2022-08-28T00:21:10.326Z,99545.31
2022-08-28T00:26:32.061Z,99549.53
2022-08-28T00:31:39.492Z,99551.69
2022-08-28T00:36:41.489Z,99551.38
2022-08-28T00:41:43.527Z,99565.81
2022-08-28T00:46:48.544Z,99556.75
2022-08-28T00:52:08.119Z,99553.72
2022-08-28T00:57:15.114Z,99555.56
2022-08-28T01:02:16.882Z,99557.59
2022-08-28T01:07:19.016Z,99548.72
2022-08-28T01:12:29.670Z,99554.59
2022-08-28T01:17:34.312Z,99553.06
2022-08-28T01:23:01.613Z,99554.59
2022-08-28T01:28:06.846Z,99561.88
2022-08-28T01:33:08.687Z,99564.00
2022-08-28T01:38:11.220Z,99566.34
2022-08-28T01:43:17.115Z,99564.00
2022-08-28T01:48:21.142Z,99566.22
2022-08-28T01:53:32.612Z,99564.06
2022-08-28T01:58:38.288Z,99574.44
2022-08-28T02:03:43.230Z,99570.19
2022-08-28T02:08:45.979Z,99574.38
2022-08-28T02:13:47.614Z,99581.63
2022-08-28T02:18:53.233Z,99591.91
2022-08-28T02:23:54.972Z,99583.19
2022-08-28T02:28:56.634Z,99591.34
2022-08-28T02:33:58.319Z,99589.88
2022-08-28T02:39:00.102Z,99590.22
2022-08-28T02:44:02.038Z,99589.56
2022-08-28T02:49:03.683Z,99593.94
2022-08-28T02:54:05.645Z,99590.25
2022-08-28T02:59:07.433Z,99585.03
2022-08-28T03:04:09.179Z,99584.28
2022-08-28T03:09:10.881Z,99587.16
2022-08-28T03:14:12.551Z,99588.88
2022-08-28T03:19:14.484Z,99590.53
2022-08-28T03:24:16.165Z,99587.44
2022-08-28T03:29:17.922Z,99596.13
2022-08-28T03:34:19.658Z,99586.31
2022-08-28T03:39:21.334Z,99586.97
2022-08-28T03:44:22.995Z,99590.63
2022-08-28T03:49:24.640Z,99585.72
2022-08-28T03:54:26.436Z,99598.94
2022-08-28T03:59:31.627Z,99606.78
2022-08-28T04:04:35.507Z,99606.03
2022-08-28T04:09:37.221Z,99612.75
2022-08-28T04:14:39.058Z,99617.16
2022-08-28T04:19:40.747Z,99615.09
2022-08-28T04:24:42.413Z,99632.94
2022-08-28T04:29:44.039Z,99627.91
2022-08-28T04:34:45.734Z,99637.13
2022-08-28T04:39:47.383Z,99640.03
2022-08-28T04:44:49.071Z,99637.41
2022-08-28T04:49:50.790Z,99636.88
2022-08-28T04:54:52.601Z,99645.69
2022-08-28T04:59:54.342Z,99646.13
2022-08-28T05:04:56.039Z,99652.38
2022-08-28T05:09:57.780Z,99652.41
2022-08-28T05:14:59.680Z,99654.47
2022-08-28T05:20:02.500Z,99658.59
2022-08-28T05:25:04.497Z,99656.81
2022-08-28T05:30:07.271Z,99678.38
2022-08-28T05:35:09.062Z,99677.16
2022-08-28T05:40:10.994Z,99689.88
2022-08-28T05:45:13.466Z,99695.69
2022-08-28T05:50:15.382Z,99711.63
2022-08-28T05:55:17.075Z,99718.88
2022-08-28T06:00:18.731Z,99718.75
2022-08-28T06:05:20.415Z,99724.97
2022-08-28T06:10:22.124Z,99723.19
2022-08-28T06:15:25.452Z,99730.03
2022-08-28T06:20:27.122Z,99727.38
2022-08-28T06:25:28.750Z,99736.06
2022-08-28T06:30:31.011Z,99740.03
2022-08-28T06:35:34.414Z,99728.25
2022-08-28T06:40:41.895Z,99744.66
2022-08-28T06:45:45.546Z,99741.34
2022-08-28T06:50:49.931Z,99739.78
2022-08-28T06:56:06.523Z,99751.00
2022-08-28T07:01:16.733Z,99751.00
2022-08-28T07:06:20.078Z,99747.03
2022-08-28T07:11:26.309Z,99757.22
2022-08-28T07:16:31.929Z,99761.50
2022-08-28T07:21:38.703Z,99764.81
2022-08-28T07:26:43.515Z,99765.25
2022-08-28T07:31:49.224Z,99768.75
2022-08-28T07:36:53.851Z,99766.13
2022-08-28T07:41:55.782Z,99770.22
2022-08-28T07:46:59.701Z,99781.19
2022-08-28T07:52:01.972Z,99782.28
2022-08-28T07:57:05.201Z,99781.88
2022-08-28T08:02:07.141Z,99789.84
2022-08-28T08:07:09.672Z,99788.91
2022-08-28T08:12:13.728Z,99792.28
2022-08-28T08:17:15.606Z,99792.25
2022-08-28T08:22:17.671Z,99790.78
2022-08-28T08:27:19.333Z,99788.69
2022-08-28T08:32:20.975Z,99797.81
2022-08-28T08:37:22.778Z,99797.38
2022-08-28T08:42:27.646Z,99806.78
2022-08-28T08:47:51.335Z,99805.66
2022-08-28T08:53:17.485Z,99812.13
2022-08-28T08:58:43.390Z,99817.84
2022-08-28T09:03:55.879Z,99820.75
2022-08-28T09:09:02.087Z,99818.84
2022-08-28T09:14:32.052Z,99825.34
2022-08-28T09:19:33.992Z,99821.41
2022-08-28T09:24:36.989Z,99809.47
2022-08-28T09:29:43.348Z,99805.41
2022-08-28T09:35:24.616Z,99808.69
2022-08-28T09:40:50.291Z,99807.56
2022-08-28T09:46:03.030Z,99810.47
2022-08-28T09:51:08.069Z,99807.66
2022-08-28T09:56:32.091Z,99810.94
2022-08-28T10:01:45.051Z,99814.03
2022-08-28T10:07:13.034Z,99800.19
2022-08-28T10:12:32.680Z,99807.59
2022-08-28T10:18:19.936Z,99809.56
2022-08-28T10:23:34.841Z,99806.13
2022-08-28T10:29:11.613Z,99819.88
2022-08-28T10:34:15.966Z,99821.16
2022-08-28T10:39:42.728Z,99811.97
2022-08-28T10:44:58.520Z,99802.72
2022-08-28T10:50:19.108Z,99806.28
2022-08-28T10:55:44.743Z,99807.19
2022-08-28T11:00:47.183Z,99802.59
2022-08-28T11:05:54.678Z,99817.19
2022-08-28T11:11:00.406Z,99804.19
2022-08-28T11:16:11.928Z,99809.72
2022-08-28T11:21:24.239Z,99807.97
2022-08-28T11:26:40.947Z,99810.56
2022-08-28T11:31:42.662Z,99805.81
2022-08-28T11:36:44.251Z,99822.22
2022-08-28T11:42:24.686Z,99840.75
2022-08-28T11:47:45.346Z,99825.22
2022-08-28T11:52:59.362Z,99826.16
2022-08-28T11:58:25.085Z,99833.00
2022-08-28T12:03:26.700Z,99834.09
2022-08-28T12:09:01.923Z,99830.13
2022-08-28T12:14:03.662Z,99828.16
2022-08-28T12:19:05.474Z,99828.03
2022-08-28T12:24:21.603Z,99838.75
2022-08-28T12:29:34.619Z,99823.34
2022-08-28T12:34:50.144Z,99826.66
2022-08-28T12:39:52.849Z,99809.75
2022-08-28T12:45:00.358Z,99819.06
2022-08-28T12:50:41.068Z,99823.50
2022-08-28T12:55:44.699Z,99815.47
2022-08-28T13:00:54.912Z,99812.53
2022-08-28T13:06:07.514Z,99813.16
2022-08-28T13:11:09.871Z,99809.94
2022-08-28T13:16:33.327Z,99810.38
2022-08-28T13:21:51.995Z,99798.00
2022-08-28T13:27:07.079Z,99805.09
2022-08-28T13:32:15.293Z,99798.19
2022-08-28T13:37:56.355Z,99802.69
2022-08-28T13:43:02.924Z,99790.72
2022-08-28T13:48:04.948Z,99788.38
2022-08-28T13:53:07.589Z,99779.28
2022-08-28T13:58:09.492Z,99781.88
2022-08-28T14:03:29.536Z,99783.97
2022-08-28T14:08:31.208Z,99785.28
2022-08-28T14:13:32.950Z,99788.63
2022-08-28T14:18:34.754Z,99791.66
2022-08-28T14:23:36.385Z,99786.81
2022-08-28T14:28:38.139Z,99788.97
2022-08-28T14:33:39.814Z,99787.66
2022-08-28T14:38:43.569Z,99772.25
2022-08-28T14:43:45.552Z,99783.63
2022-08-28T14:48:48.179Z,99785.22
2022-08-28T14:53:49.914Z,99775.31
2022-08-28T14:58:51.685Z,99785.28
2022-08-28T15:03:53.391Z,99779.75
2022-08-28T15:08:55.186Z,99792.13
2022-08-28T15:13:58.518Z,99781.28
2022-08-28T15:19:01.665Z,99785.38
2022-08-28T15:24:04.732Z,99784.09
2022-08-28T15:29:07.449Z,99783.53
2022-08-28T15:34:13.484Z,99787.63
2022-08-28T15:39:34.091Z,99781.22
2022-08-28T15:44:36.102Z,99788.66
2022-08-28T15:49:43.626Z,99786.44
2022-08-28T15:54:51.493Z,99777.81
2022-08-28T15:59:53.126Z,99787.78
2022-08-28T16:04:54.866Z,99792.47
2022-08-28T16:09:56.539Z,99794.16
2022-08-28T16:14:58.168Z,99794.34
2022-08-28T16:19:59.796Z,99807.47
2022-08-28T16:25:01.443Z,99806.69
2022-08-28T16:30:04.575Z,99801.94
2022-08-28T16:35:07.397Z,99795.56
2022-08-28T16:40:10.644Z,99803.88
2022-08-28T16:45:12.485Z,99807.13
2022-08-28T16:50:14.323Z,99801.41
2022-08-28T16:55:16.515Z,99800.91
2022-08-28T17:00:19.199Z,99801.13
2022-08-28T17:05:21.714Z,99796.22
2022-08-28T17:10:25.211Z,99794.88
2022-08-28T17:15:27.149Z,99794.03
2022-08-28T17:20:47.222Z,99789.22
2022-08-28T17:25:48.866Z,99793.16
2022-08-28T17:30:50.515Z,99797.53
2022-08-28T17:35:55.157Z,99797.47
2022-08-28T17:40:56.813Z,99790.53
2022-08-28T17:45:58.490Z,99791.84
2022-08-28T17:51:01.821Z,99812.13
2022-08-28T17:56:05.731Z,99811.31
2022-08-28T18:01:07.534Z,99818.66
2022-08-28T18:06:09.159Z,99822.19
2022-08-28T18:11:13.488Z,99831.25
2022-08-28T18:16:15.821Z,99839.69
2022-08-28T18:21:17.514Z,99837.72
2022-08-28T18:26:19.255Z,99843.84
2022-08-28T18:31:21.047Z,99852.88
2022-08-28T18:36:23.329Z,99866.31
2022-08-28T18:41:43.004Z,99870.81
2022-08-28T18:46:47.076Z,99880.94
2022-08-28T18:51:48.760Z,99883.31
2022-08-28T18:56:50.561Z,99884.03
2022-08-28T19:01:52.412Z,99886.25
2022-08-28T19:06:54.308Z,99884.41
2022-08-28T19:11:56.331Z,99877.63
2022-08-28T19:16:58.044Z,99888.22
2022-08-28T19:22:00.474Z,99898.91
2022-08-28T19:27:02.775Z,99888.25
2022-08-28T19:32:05.692Z,99896.59
2022-08-28T19:37:07.400Z,99906.69
2022-08-28T19:42:09.047Z,99918.03
2022-08-28T19:47:10.894Z,99911.53
2022-08-28T19:52:12.754Z,99909.47
2022-08-28T19:57:15.223Z,99918.84
2022-08-28T20:02:22.910Z,99918.84
2022-08-28T20:07:25.052Z,99920.34
2022-08-28T20:12:26.881Z,99928.47
2022-08-28T20:17:28.564Z,99923.19
2022-08-28T20:22:31.918Z,99930.28
2022-08-28T20:27:34.251Z,99934.22
2022-08-28T20:32:36.545Z,99929.13
2022-08-28T20:37:45.246Z,99932.94
2022-08-28T20:42:48.080Z,99938.16
2022-08-28T20:47:49.929Z,99939.81
2022-08-28T20:52:51.783Z,99951.00
2022-08-28T20:57:53.415Z,99952.03
2022-08-28T21:02:55.076Z,99955.78
2022-08-28T21:07:57.243Z,99961.78
2022-08-28T21:12:58.999Z,99965.47
2022-08-28T21:18:02.030Z,99971.25
2022-08-28T21:23:05.380Z,99968.66
2022-08-28T21:28:07.407Z,99972.53
2022-08-28T21:33:09.332Z,99977.59
2022-08-28T21:38:11.044Z,99969.22
2022-08-28T21:43:12.729Z,99975.44
2022-08-28T21:48:14.466Z,99979.75
2022-08-28T21:53:16.606Z,99986.34
2022-08-28T21:58:22.956Z,99982.97
2022-08-28T22:03:26.858Z,99987.75
2022-08-28T22:08:28.642Z,99977.00
2022-08-28T22:13:30.302Z,99981.06
2022-08-28T22:18:34.192Z,99996.97
2022-08-28T22:23:37.314Z,99999.44
2022-08-28T22:28:39.179Z,99996.31
2022-08-28T22:33:41.018Z,99997.56
2022-08-28T22:38:47.008Z,99997.44
2022-08-28T22:43:55.236Z,100004.19
2022-08-28T22:48:56.860Z,100000.72
2022-08-28T22:53:58.734Z,100000.66
2022-08-28T22:59:00.498Z,100008.94
2022-08-28T23:04:02.946Z,100009.84
2022-08-28T23:09:04.663Z,100011.47
2022-08-28T23:14:06.313Z,100014.25
2022-08-28T23:19:08.998Z,100012.72
2022-08-28T23:24:16.124Z,100013.41
2022-08-28T23:29:17.823Z,100012.84
2022-08-28T23:34:19.586Z,100017.16
2022-08-28T23:39:21.422Z,100017.59
2022-08-28T23:44:23.186Z,100023.84
2022-08-28T23:49:27.037Z,100025.75
2022-08-28T23:54:28.848Z,100034.88
2022-08-28T23:59:31.192Z,100042.16
